• Join FlightAware (Why Join?)
  • Login
  • US Flag 
11:45PM EDT


 

Airport Tracker/Info


-or-


 

Live Flight TrackerFlight Track Log ✈ QXE2179 ✈ 01-05-2013 ✈ KSEA - KRDM

Flight Track Log - Related Links

Times and Time Zones

All times are in EDT time to prevent confusion due to time zone crossing. See the QXE2179 flight status page for this flight to view local times or setup timezone preferences in your user account.

Time Position Orientation Groundspeed Altitude Reporting Facility
EDT Latitude Longitude Course Direction KTS MPH feet Rate Location/Type
08:42PM 46.8039 -122.3978 165° South 310 357 16,600  Level Seattle Center
08:43PM 46.7217 -122.3511 159° South 319 367 17,700 840 Climbing Seattle Center
08:44PM 46.6211 -122.2994 161° South 323 372 18,400 540 Climbing Seattle Center
08:45PM 46.5378 -122.2583 161° South 321 369 18,900 240 Climbing Seattle Center
08:46PM 46.4497 -122.2125 160° South 337 388 19,000  Climbing Seattle Center
08:47PM 46.3625 -122.1700 161° South 337 388 19,000  Level Seattle Center
08:48PM 46.2557 -121.8614 165° South  Level Estimated
08:48PM 46.2756 -122.1242 160° South 336 387 19,000  Level Seattle Center
08:49PM 46.1783 -122.0767 161° South 336 387 18,900  Descending Seattle Center
08:50PM 46.0900 -122.0333 161° South 335 386 19,000  Climbing Seattle Center
08:52PM 46.0008 -121.9875 160° South 340 391 19,000  Level Seattle Center
08:53PM 45.9114 -121.9433 161° South 334 384 19,000  Level Seattle Center
08:54PM 45.8222 -121.8981 161° South 338 389 19,000  Level Seattle Center
08:55PM 45.7311 -121.8539 161° South 344 396 19,000  Level Seattle Center
08:56PM 45.6414 -121.8097 161° South 344 396 19,000  Level Seattle Center
08:57PM 45.5522 -121.7647 161° South 342 394 19,000  Level Seattle Center
08:58PM 45.4614 -121.7203 161° South 345 397 19,000  Level Seattle Center
08:59PM 45.3714 -121.6775 162° South 345 397 19,000  Level Seattle Center
09:00PM 45.2803 -121.6350 162° South 345 397 19,000  Level Seattle Center
09:01PM 45.1722 -121.5833 161° South 345 397 19,000  Level Seattle Center
09:02PM 45.0825 -121.5389 161° South 344 396 19,000 -180 Level Seattle Center
09:03PM 44.9925 -121.4964 162° South 343 395 18,700 -960 Descending Seattle Center
09:04PM 44.8939 -121.4494 161° South 369 425 17,100 -1,920 Descending Seattle Center
09:05PM 44.7922 -121.4017 162° South 385 443 14,800 -2,160 Descending Seattle Center
09:06PM 44.7008 -121.3589 162° South 357 411 12,800 -1,980 Descending Seattle Center
09:07PM 44.6108 -121.3181 162° South 321 369 10,800 -1,800 Descending Seattle Center
09:08PM 44.5342 -121.2808 161° South 296 341 9,200 -1,560 Descending Seattle Center
09:09PM 44.4658 -121.2489 162° South 269 310 7,700 -1,440 Descending Seattle Center
09:10PM 44.4036 -121.2317 169° South 240 276 6,300 -1,440 Descending Seattle Center
09:11PM 44.3458 -121.2181 170° South 226 260 4,800 -900 Descending Seattle Center
09:12PM 44.2939 -121.2117 175° South 214 246 4,600 -180 Descending Seattle Center
09:13PM 44.2544 -121.2364 204° Southwest 193 222 4,500 -420 Descending Seattle Center
09:14PM 44.2356 -121.1958 123° Southeast 165 190 3,800 -720 Descending Seattle Center